createdAt,value
2018-11-02T00:03:56.346Z,10.00
2018-11-02T00:08:48.969Z,8.97
2018-11-02T00:13:41.735Z,9.90
2018-11-02T00:18:34.344Z,9.70
2018-11-02T00:23:26.960Z,9.90
2018-11-02T00:28:19.573Z,9.80
2018-11-02T00:33:12.182Z,9.97
2018-11-02T00:38:05.691Z,9.97
2018-11-02T00:42:58.332Z,9.30
2018-11-02T00:47:50.971Z,10.17
2018-11-02T00:52:43.649Z,9.87
2018-11-02T00:57:36.281Z,10.47
2018-11-02T01:02:35.678Z,9.77
2018-11-02T01:07:28.350Z,9.50
2018-11-02T01:12:21.007Z,9.20
2018-11-02T01:17:13.648Z,9.57
2018-11-02T01:22:09.085Z,10.10
2018-11-02T01:27:01.720Z,9.77
2018-11-02T01:31:54.788Z,10.20
2018-11-02T01:36:47.434Z,10.23
2018-11-02T01:41:40.145Z,10.40
2018-11-02T01:46:32.907Z,10.50
2018-11-02T01:51:25.547Z,10.97
2018-11-02T01:56:18.193Z,10.73
2018-11-02T02:01:10.885Z,10.80
2018-11-02T02:06:03.852Z,10.80
2018-11-02T02:10:56.461Z,10.43
2018-11-02T02:15:49.181Z,11.10
2018-11-02T02:20:41.957Z,10.07
2018-11-02T02:25:34.688Z,10.37
2018-11-02T02:30:27.311Z,10.73
2018-11-02T02:35:19.929Z,10.33
2018-11-02T02:40:12.791Z,10.30
2018-11-02T02:45:06.380Z,10.47
2018-11-02T02:49:59.033Z,9.77
2018-11-02T02:54:51.661Z,10.07
2018-11-02T02:59:44.252Z,9.47
2018-11-02T03:04:36.997Z,10.20
2018-11-02T03:09:29.602Z,10.40
2018-11-02T03:14:22.340Z,9.70
2018-11-02T03:19:14.977Z,10.33
2018-11-02T03:24:07.694Z,10.47
2018-11-02T03:29:00.361Z,9.43
2018-11-02T03:33:52.991Z,10.27
2018-11-02T03:38:45.649Z,9.23
2018-11-02T03:43:38.501Z,9.60
2018-11-02T03:48:31.143Z,9.40
2018-11-02T03:53:23.949Z,9.63
2018-11-02T03:58:16.749Z,9.67
2018-11-02T04:03:09.376Z,9.07
2018-11-02T04:08:02.045Z,9.00
2018-11-02T04:12:54.696Z,8.97
2018-11-02T04:17:47.321Z,8.80
2018-11-02T04:22:40.008Z,9.13
2018-11-02T04:27:32.695Z,10.67
2018-11-02T04:32:25.315Z,10.80
2018-11-02T04:37:17.961Z,9.73
2018-11-02T04:42:10.639Z,9.93
2018-11-02T04:47:03.333Z,9.53
2018-11-02T04:51:55.964Z,8.80
2018-11-02T04:56:48.614Z,8.07
2018-11-02T05:01:41.320Z,8.33
2018-11-02T05:06:34.012Z,8.47
2018-11-02T05:11:26.711Z,8.20
2018-11-02T05:16:19.481Z,7.83
2018-11-02T05:21:12.116Z,8.67
2018-11-02T05:26:05.142Z,8.97
2018-11-02T05:30:57.808Z,9.43
2018-11-02T05:35:50.448Z,9.80
2018-11-02T05:40:43.253Z,9.93
2018-11-02T05:45:35.929Z,8.87
2018-11-02T05:50:28.653Z,8.37
2018-11-02T05:55:21.357Z,8.23
2018-11-02T06:00:14.070Z,8.57
2018-11-02T06:05:06.823Z,9.20
2018-11-02T06:09:59.564Z,9.50
2018-11-02T06:14:52.247Z,8.83
2018-11-02T06:19:44.839Z,7.87
2018-11-02T06:24:37.658Z,8.67
2018-11-02T06:29:30.370Z,8.37
2018-11-02T06:34:24.381Z,8.80
2018-11-02T06:39:17.507Z,9.10
2018-11-02T06:44:10.615Z,8.27
2018-11-02T06:49:03.297Z,9.27
2018-11-02T06:53:55.910Z,8.73
2018-11-02T06:58:48.558Z,9.00
2018-11-02T07:03:41.185Z,8.70
2018-11-02T07:08:33.891Z,8.53
2018-11-02T07:13:26.549Z,8.33
2018-11-02T07:18:19.294Z,8.67
2018-11-02T07:23:11.882Z,8.37
2018-11-02T07:28:05.458Z,8.80
2018-11-02T07:32:58.143Z,8.33
2018-11-02T07:37:50.839Z,8.93
2018-11-02T07:42:43.503Z,8.70
2018-11-02T07:47:36.244Z,9.00
2018-11-02T07:52:28.902Z,8.03
2018-11-02T07:57:21.550Z,8.60
2018-11-02T08:02:14.173Z,7.67
2018-11-02T08:07:07.091Z,8.43
2018-11-02T08:11:59.739Z,7.97
2018-11-02T08:16:52.473Z,8.30
2018-11-02T08:21:45.090Z,8.30
2018-11-02T08:26:37.897Z,7.80
2018-11-02T08:31:30.534Z,8.00
2018-11-02T08:36:23.134Z,8.43
2018-11-02T08:41:15.798Z,8.17
2018-11-02T08:46:08.483Z,7.90
2018-11-02T08:51:01.174Z,8.20
2018-11-02T08:55:53.837Z,7.63
2018-11-02T09:00:46.494Z,8.80
2018-11-02T09:05:39.281Z,8.13
2018-11-02T09:10:32.134Z,8.10
2018-11-02T09:15:24.772Z,7.73
2018-11-02T09:20:17.453Z,7.43
2018-11-02T09:25:10.171Z,7.53
2018-11-02T09:30:02.934Z,7.50
2018-11-02T09:34:55.550Z,7.77
2018-11-02T09:39:48.247Z,7.13
2018-11-02T09:44:41.104Z,7.07
2018-11-02T09:49:33.869Z,7.27
2018-11-02T09:54:26.508Z,7.10
2018-11-02T09:59:19.287Z,6.87
2018-11-02T10:04:12.118Z,7.30
2018-11-02T10:09:08.168Z,7.77
2018-11-02T10:14:00.895Z,7.07
2018-11-02T10:18:53.642Z,6.40
2018-11-02T10:23:46.374Z,6.37
2018-11-02T10:28:39.044Z,6.27
2018-11-02T10:33:31.862Z,6.43
2018-11-02T10:38:24.605Z,5.67
2018-11-02T10:43:18.072Z,6.13
2018-11-02T10:48:10.781Z,5.63
2018-11-02T10:53:03.647Z,5.30
2018-11-02T10:57:56.426Z,5.37
2018-11-02T11:02:49.149Z,5.50
2018-11-02T11:07:41.981Z,5.80
2018-11-02T11:12:34.824Z,5.27
2018-11-02T11:17:27.294Z,4.43
2018-11-02T11:22:19.951Z,4.97
2018-11-02T11:27:12.676Z,4.70
2018-11-02T11:32:05.599Z,4.70
2018-11-02T11:36:58.280Z,4.40
2018-11-02T11:41:50.955Z,4.23
2018-11-02T11:46:43.598Z,4.03
2018-11-02T11:51:36.294Z,3.80
2018-11-02T11:56:29.057Z,4.07
2018-11-02T12:01:21.801Z,3.53
2018-11-02T12:06:14.625Z,3.70
2018-11-02T12:11:07.301Z,4.17
2018-11-02T12:15:59.965Z,3.60
2018-11-02T12:20:52.530Z,3.70
2018-11-02T12:25:45.213Z,3.50
2018-11-02T12:30:37.912Z,3.40
2018-11-02T12:35:30.706Z,3.60
2018-11-02T12:40:23.886Z,3.37
2018-11-02T12:45:17.721Z,3.37
2018-11-02T12:50:16.970Z,3.30
2018-11-02T12:55:10.175Z,3.40
2018-11-02T13:00:02.961Z,3.63
2018-11-02T13:04:55.614Z,3.03
2018-11-02T13:09:48.282Z,3.10
2018-11-02T13:14:40.901Z,3.40
2018-11-02T13:19:33.602Z,3.13
2018-11-02T13:24:26.284Z,3.30
2018-11-02T13:29:18.966Z,3.40
2018-11-02T13:34:11.654Z,3.30
2018-11-02T13:39:08.501Z,3.30
2018-11-02T13:44:01.216Z,3.27
2018-11-02T13:48:53.914Z,3.23
2018-11-02T13:53:46.822Z,3.40
2018-11-02T13:58:39.553Z,3.30
2018-11-02T14:03:32.218Z,3.37
2018-11-02T14:08:24.878Z,2.87
2018-11-02T14:13:17.801Z,3.20
2018-11-02T14:18:10.499Z,3.40
2018-11-02T14:23:03.384Z,3.53
2018-11-02T14:27:56.049Z,3.33
2018-11-02T14:32:48.913Z,3.37
2018-11-02T14:37:41.545Z,2.90
2018-11-02T14:42:34.309Z,2.83
2018-11-02T14:47:27.095Z,2.70
2018-11-02T14:52:19.917Z,2.80
2018-11-02T14:57:12.515Z,3.10
2018-11-02T15:02:05.314Z,2.87
2018-11-02T15:06:57.970Z,2.90
2018-11-02T15:11:50.746Z,2.77
2018-11-02T15:16:43.496Z,2.73
2018-11-02T15:21:36.302Z,3.40
2018-11-02T15:26:29.048Z,3.20
2018-11-02T15:31:21.663Z,2.97
2018-11-02T15:36:14.248Z,3.27
2018-11-02T15:41:06.969Z,3.17
2018-11-02T15:45:59.682Z,3.70
2018-11-02T15:50:52.324Z,4.10
2018-11-02T15:55:44.932Z,4.37
2018-11-02T16:00:37.554Z,5.07
2018-11-02T16:05:30.258Z,3.90
2018-11-02T16:10:22.874Z,4.33
2018-11-02T16:15:15.527Z,5.37
2018-11-02T16:20:10.831Z,3.93
2018-11-02T16:25:03.570Z,3.90
2018-11-02T16:29:56.211Z,6.73
2018-11-02T16:34:48.825Z,4.40
2018-11-02T16:39:41.882Z,5.17
2018-11-02T16:44:34.574Z,4.60
2018-11-02T16:49:27.205Z,4.40
2018-11-02T16:54:19.856Z,4.10
2018-11-02T16:59:12.609Z,4.50
2018-11-02T17:04:05.182Z,4.10
2018-11-02T17:08:57.788Z,4.30
2018-11-02T17:13:50.491Z,4.67
2018-11-02T17:18:43.236Z,4.33
2018-11-02T17:23:35.864Z,4.33
2018-11-02T17:28:28.497Z,4.83
2018-11-02T17:33:21.652Z,5.20
2018-11-02T17:38:14.369Z,7.10
2018-11-02T17:43:07.072Z,6.30
2018-11-02T17:47:59.717Z,5.87
2018-11-02T17:52:52.333Z,8.50
2018-11-02T17:57:44.893Z,10.43
2018-11-02T18:02:37.493Z,11.77
2018-11-02T18:07:30.146Z,8.73
2018-11-02T18:12:22.880Z,6.00
2018-11-02T18:17:15.789Z,5.97
2018-11-02T18:22:08.517Z,6.00
2018-11-02T18:27:01.389Z,7.07
2018-11-02T18:31:54.082Z,7.60
2018-11-02T18:36:46.796Z,7.90
2018-11-02T18:41:39.708Z,8.40
2018-11-02T18:46:32.340Z,8.17
2018-11-02T18:51:24.974Z,9.03
2018-11-02T18:56:17.729Z,9.30
2018-11-02T19:01:10.381Z,8.93
2018-11-02T19:06:03.015Z,8.30
2018-11-02T19:10:55.674Z,10.10
2018-11-02T19:15:48.468Z,9.97
2018-11-02T19:20:41.024Z,9.90
2018-11-02T19:25:33.688Z,10.17
2018-11-02T19:30:26.362Z,10.47
2018-11-02T19:35:19.136Z,14.53
2018-11-02T19:40:12.970Z,9.20
2018-11-02T19:45:06.648Z,9.33
2018-11-02T19:49:59.265Z,9.87
2018-11-02T19:54:52.668Z,10.40
2018-11-02T19:59:47.010Z,10.77
2018-11-02T20:04:40.244Z,11.63
2018-11-02T20:09:33.536Z,11.13
2018-11-02T20:14:27.226Z,11.17
2018-11-02T20:19:20.343Z,11.53
2018-11-02T20:24:13.529Z,14.63
2018-11-02T20:29:10.639Z,12.60
2018-11-02T20:34:06.150Z,11.93
2018-11-02T20:38:59.525Z,11.47
2018-11-02T20:43:52.731Z,10.47
2018-11-02T20:48:45.866Z,10.90
2018-11-02T20:53:38.948Z,11.10
2018-11-02T20:58:32.072Z,12.20
2018-11-02T21:03:25.807Z,13.10
2018-11-02T21:08:18.932Z,13.63
2018-11-02T21:13:11.884Z,14.70
2018-11-02T21:18:05.726Z,16.23
2018-11-02T21:22:59.642Z,16.40
2018-11-02T21:27:52.652Z,18.00
2018-11-02T21:32:56.538Z,15.77
2018-11-02T21:37:49.828Z,16.23
2018-11-02T21:42:42.818Z,16.85
2018-11-02T21:47:35.888Z,15.20
2018-11-02T21:52:28.855Z,15.30
2018-11-02T21:57:21.758Z,15.80
2018-11-02T22:02:15.520Z,16.13
2018-11-02T22:07:08.245Z,16.23
2018-11-02T22:12:00.934Z,15.13
2018-11-02T22:16:53.905Z,15.60
2018-11-02T22:21:46.753Z,15.60
2018-11-02T22:26:39.501Z,14.37
2018-11-02T22:31:32.183Z,15.27
2018-11-02T22:36:24.927Z,14.13
2018-11-02T22:41:17.614Z,12.53
2018-11-02T22:46:10.535Z,12.20
2018-11-02T22:51:03.215Z,13.97
2018-11-02T22:55:55.807Z,14.50
2018-11-02T23:00:54.407Z,13.57
2018-11-02T23:05:47.125Z,13.27
2018-11-02T23:10:39.718Z,13.97
2018-11-02T23:15:32.375Z,15.37
2018-11-02T23:20:25.089Z,14.90
2018-11-02T23:25:17.773Z,15.53
2018-11-02T23:30:10.820Z,15.07
2018-11-02T23:35:03.407Z,14.93
2018-11-02T23:39:56.130Z,15.03
2018-11-02T23:44:48.957Z,15.03
2018-11-02T23:49:41.555Z,13.90
2018-11-02T23:54:34.280Z,13.60
2018-11-02T23:59:26.974Z,14.33
